Weather at Nevşehir Kapadokya Airport

Public forecast

Using degrees Celsius for public forecast. Weather courtesy of forecast.io.

Current aviation weather report (METAR) for Nevşehir Kapadokya Airport

Retrieved 2020/11/25 22:20 UTC (0 seconds ago):

LTAZ 252220Z 02016G30KT 350V050 9999 FEW040 BKN120 02/M03 Q1018

Aviation forecast (TAF) for Nevşehir Kapadokya Airport

Retrieved 2020/11/25 18:00 UTC (4 hours ago):

TAF LTAZ 251640Z 2518/2618 03015G25KT 9999 FEW040 BKN120 BECMG 2520/2524 03009KT